Time;durP1;ratioP1;P1;durP2;ratioP2;P2;SDS_P1;SDS_P2;PMS_P1;PMS_P2;Temp;Humidity;BMP_temperature;BMP_pressure;BME280_temperature;BME280_humidity;BME280_pressure;Samples;Min_cycle;Max_cycle;Signal;HPM_P1;HPM_P2
2021/03/01 00:00:42;;;;;;;18.83;9.73;;;;;;;;;;5037796;28;20634;-45
2021/03/01 00:03:08;;;;;;;15.43;8.90;;;;;;;;;;5040737;28;20221;-44
2021/03/01 00:05:33;;;;;;;13.13;6.47;;;;;;;;;;5047094;28;20193;-44
2021/03/01 00:07:59;;;;;;;10.67;5.53;;;;;;;;;;5043110;28;20217;-47
2021/03/01 00:10:24;;;;;;;8.63;3.70;;;;;;;;;;5046499;28;20281;-45
2021/03/01 00:12:50;;;;;;;5.67;3.13;;;;;;;;;;5036293;28;20256;-44
2021/03/01 00:15:16;;;;;;;9.93;5.80;;;;;;;;;;5047148;28;20198;-47
2021/03/01 00:17:42;;;;;;;8.90;5.63;;;;;;;;;;5041859;28;20276;-46
2021/03/01 00:20:10;;;;;;;14.40;7.77;;;;;;;;;;5038125;28;20193;-47
2021/03/01 00:22:36;;;;;;;14.47;7.67;;;;;;;;;;5046335;28;20201;-47
2021/03/01 00:25:02;;;;;;;14.87;8.53;;;;;;;;;;5043351;28;20590;-44
2021/03/01 00:27:27;;;;;;;13.83;8.13;;;;;;;;;;5043974;28;20700;-44
2021/03/01 00:29:53;;;;;;;16.00;8.23;;;;;;;;;;5038332;28;20194;-44
2021/03/01 00:32:18;;;;;;;16.07;8.40;;;;;;;;;;5042178;28;20194;-47
2021/03/01 00:34:43;;;;;;;13.33;7.30;;;;;;;;;;5046556;28;20615;-44
2021/03/01 00:37:09;;;;;;;11.07;6.13;;;;;;;;;;5041048;28;20197;-45
2021/03/01 00:39:34;;;;;;;13.40;7.67;;;;;;;;;;5055117;28;20786;-46
2021/03/01 00:42:00;;;;;;;13.83;7.30;;;;;;;;;;5044135;28;20218;-44
2021/03/01 00:44:25;;;;;;;15.57;7.43;;;;;;;;;;5037931;28;20411;-44
2021/03/01 00:46:51;;;;;;;16.00;8.47;;;;;;;;;;5037097;28;20214;-47
2021/03/01 00:49:16;;;;;;;14.67;9.33;;;;;;;;;;5040004;28;20210;-45
2021/03/01 00:51:41;;;;;;;16.73;8.87;;;;;;;;;;5035843;28;20191;-46
2021/03/01 00:54:07;;;;;;;12.40;7.83;;;;;;;;;;5044704;28;20243;-48
2021/03/01 00:56:33;;;;;;;14.13;9.20;;;;;;;;;;5036291;28;20709;-46
2021/03/01 00:58:58;;;;;;;9.80;5.80;;;;;;;;;;5035431;28;20265;-45
2021/03/01 01:01:23;;;;;;;10.97;7.17;;;;;;;;;;5041387;28;20202;-45
2021/03/01 01:03:49;;;;;;;9.30;5.80;;;;;;;;;;5048123;28;20190;-45
2021/03/01 01:06:14;;;;;;;9.17;5.27;;;;;;;;;;5040395;28;20686;-44
2021/03/01 01:08:40;;;;;;;11.40;6.83;;;;;;;;;;5044022;28;20209;-46
2021/03/01 01:11:05;;;;;;;14.60;7.77;;;;;;;;;;5045190;28;20202;-45
2021/03/01 01:13:31;;;;;;;9.60;6.07;;;;;;;;;;5039236;28;20630;-45
2021/03/01 01:15:56;;;;;;;6.93;3.97;;;;;;;;;;5045902;28;20185;-45
2021/03/01 01:18:22;;;;;;;13.23;6.77;;;;;;;;;;5047791;28;20688;-45
2021/03/01 01:20:47;;;;;;;12.73;7.57;;;;;;;;;;5042489;28;20198;-47
2021/03/01 01:23:13;;;;;;;13.27;7.93;;;;;;;;;;5040873;28;20182;-44
2021/03/01 01:25:38;;;;;;;12.80;8.57;;;;;;;;;;5044180;28;20584;-44
2021/03/01 01:28:03;;;;;;;11.87;7.43;;;;;;;;;;5044812;28;20681;-45
2021/03/01 01:30:28;;;;;;;14.60;8.13;;;;;;;;;;5046140;28;20190;-46
2021/03/01 01:32:54;;;;;;;15.53;8.60;;;;;;;;;;5045597;28;20709;-45
2021/03/01 01:35:20;;;;;;;16.43;8.70;;;;;;;;;;5043608;28;20206;-47
2021/03/01 01:37:46;;;;;;;16.23;9.23;;;;;;;;;;5041990;28;20259;-45
2021/03/01 01:40:14;;;;;;;15.43;7.93;;;;;;;;;;5039830;28;20198;-45
2021/03/01 01:42:40;;;;;;;12.23;7.60;;;;;;;;;;5041185;28;20685;-44
2021/03/01 01:45:08;;;;;;;13.53;7.17;;;;;;;;;;5039761;28;20194;-44
2021/03/01 01:47:33;;;;;;;11.13;7.50;;;;;;;;;;5041921;28;20261;-44
2021/03/01 01:49:59;;;;;;;13.60;8.33;;;;;;;;;;5048142;28;20559;-46
2021/03/01 01:52:24;;;;;;;14.83;8.00;;;;;;;;;;5041975;28;20657;-46
2021/03/01 01:54:50;;;;;;;15.73;8.17;;;;;;;;;;5045072;28;20233;-44
2021/03/01 01:57:16;;;;;;;14.67;9.50;;;;;;;;;;5045144;28;20190;-44
2021/03/01 01:59:43;;;;;;;17.67;9.17;;;;;;;;;;5039212;28;20217;-43
2021/03/01 02:02:11;;;;;;;16.87;9.60;;;;;;;;;;5041437;28;20236;-45
2021/03/01 02:04:41;;;;;;;17.00;8.70;;;;;;;;;;5044607;28;20225;-45
2021/03/01 02:07:22;;;;;;;14.47;8.50;;;;;;;;;;5056054;28;20215;-47
2021/03/01 02:09:58;;;;;;;16.27;9.03;;;;;;;;;;5037768;28;20196;-44
2021/03/01 02:12:42;;;;;;;16.50;9.47;;;;;;;;;;5056761;28;20218;-45
2021/03/01 02:15:10;;;;;;;14.30;9.13;;;;;;;;;;5035611;28;20805;-44
2021/03/01 02:17:35;;;;;;;18.27;10.57;;;;;;;;;;5036642;28;20198;-46
2021/03/01 02:20:05;;;;;;;17.80;10.47;;;;;;;;;;5043439;28;20201;-44
2021/03/01 02:22:30;;;;;;;17.63;10.43;;;;;;;;;;5040887;28;20197;-44
2021/03/01 02:25:04;;;;;;;18.27;10.13;;;;;;;;;;5045414;28;20198;-45
2021/03/01 02:27:32;;;;;;;20.37;10.80;;;;;;;;;;5045268;28;20183;-45
2021/03/01 02:30:12;;;;;;;15.53;7.60;;;;;;;;;;5040820;28;20659;-46
2021/03/01 02:32:39;;;;;;;12.97;6.10;;;;;;;;;;5041199;28;20603;-46
2021/03/01 02:35:06;;;;;;;18.60;10.80;;;;;;;;;;5048257;28;20198;-45
2021/03/01 02:37:36;;;;;;;18.30;9.53;;;;;;;;;;5045839;28;20268;-45
2021/03/01 02:40:03;;;;;;;16.30;9.23;;;;;;;;;;5039329;28;20190;-44
2021/03/01 02:42:29;;;;;;;14.37;8.73;;;;;;;;;;5046958;28;20621;-46
2021/03/01 02:44:56;;;;;;;16.77;9.07;;;;;;;;;;5045028;28;20196;-46
2021/03/01 02:47:24;;;;;;;15.10;9.00;;;;;;;;;;5046767;28;20467;-49
2021/03/01 02:49:51;;;;;;;16.70;10.10;;;;;;;;;;5040066;28;20198;-44
2021/03/01 02:52:18;;;;;;;16.97;7.93;;;;;;;;;;5061603;28;20654;-44
2021/03/01 02:54:44;;;;;;;14.23;6.57;;;;;;;;;;5047495;28;20763;-44
2021/03/01 02:57:12;;;;;;;18.90;8.70;;;;;;;;;;5048442;28;20554;-46
2021/03/01 02:59:38;;;;;;;16.73;9.43;;;;;;;;;;5043394;28;20218;-45
2021/03/01 03:02:05;;;;;;;15.10;8.67;;;;;;;;;;5044788;28;20239;-44
2021/03/01 03:04:31;;;;;;;18.07;9.63;;;;;;;;;;5046726;28;20213;-47
2021/03/01 03:06:56;;;;;;;17.60;9.70;;;;;;;;;;5046288;28;20215;-45
2021/03/01 03:09:22;;;;;;;15.83;8.90;;;;;;;;;;5041832;28;20533;-45
2021/03/01 03:11:48;;;;;;;18.70;10.77;;;;;;;;;;5056433;28;20201;-45
2021/03/01 03:14:16;;;;;;;18.97;10.17;;;;;;;;;;5042934;28;20564;-46
2021/03/01 03:16:42;;;;;;;17.70;9.57;;;;;;;;;;5044099;28;20763;-45
2021/03/01 03:19:08;;;;;;;17.03;10.33;;;;;;;;;;5062598;28;20301;-44
2021/03/01 03:21:34;;;;;;;18.87;10.93;;;;;;;;;;5040333;28;20336;-45
2021/03/01 03:24:00;;;;;;;19.00;11.07;;;;;;;;;;5047069;28;20280;-45
2021/03/01 03:26:25;;;;;;;15.20;8.50;;;;;;;;;;5042283;28;20283;-45
2021/03/01 03:28:50;;;;;;;20.77;9.30;;;;;;;;;;5042574;28;20223;-44
2021/03/01 03:31:16;;;;;;;20.43;10.97;;;;;;;;;;5039371;28;20217;-46
2021/03/01 03:33:42;;;;;;;20.50;10.53;;;;;;;;;;5045237;28;20198;-46
2021/03/01 03:36:09;;;;;;;15.27;8.20;;;;;;;;;;5041372;28;20178;-44
2021/03/01 03:38:42;;;;;;;17.13;9.83;;;;;;;;;;5042225;28;20209;-43
2021/03/01 03:41:08;;;;;;;18.80;10.73;;;;;;;;;;5045062;28;20195;-46
2021/03/01 03:43:34;;;;;;;17.37;8.97;;;;;;;;;;5045621;28;20197;-44
2021/03/01 03:46:02;;;;;;;12.87;6.70;;;;;;;;;;5036623;28;20228;-46
2021/03/01 03:48:28;;;;;;;13.27;8.23;;;;;;;;;;5035187;28;20217;-45
2021/03/01 03:50:57;;;;;;;19.47;10.23;;;;;;;;;;5040856;28;20205;-42
2021/03/01 03:53:28;;;;;;;18.00;9.67;;;;;;;;;;5044395;28;20646;-43
2021/03/01 03:55:58;;;;;;;15.80;8.73;;;;;;;;;;5039014;28;20213;-45
2021/03/01 03:58:31;;;;;;;15.87;7.90;;;;;;;;;;5046460;28;20895;-47
2021/03/01 04:00:59;;;;;;;15.50;7.87;;;;;;;;;;5046951;28;20217;-45
2021/03/01 04:03:26;;;;;;;13.07;7.57;;;;;;;;;;5043522;28;20182;-44
2021/03/01 04:05:55;;;;;;;16.10;8.97;;;;;;;;;;5044325;28;20232;-47
2021/03/01 04:08:22;;;;;;;20.90;9.90;;;;;;;;;;5045062;28;20701;-46
2021/03/01 04:10:52;;;;;;;15.90;9.77;;;;;;;;;;5037360;28;20642;-46
2021/03/01 04:13:19;;;;;;;19.87;9.70;;;;;;;;;;5042567;28;20711;-46
2021/03/01 04:15:47;;;;;;;20.33;10.70;;;;;;;;;;5044239;28;20674;-46
2021/03/01 04:18:16;;;;;;;22.17;11.60;;;;;;;;;;5046446;28;20215;-45
2021/03/01 04:20:44;;;;;;;20.23;11.27;;;;;;;;;;5042609;28;20490;-44
2021/03/01 04:23:10;;;;;;;24.20;11.30;;;;;;;;;;5045539;28;20190;-45
2021/03/01 04:25:36;;;;;;;20.60;11.60;;;;;;;;;;5044525;28;20206;-44
2021/03/01 04:28:02;;;;;;;20.87;11.67;;;;;;;;;;5036367;28;20590;-44
2021/03/01 04:30:31;;;;;;;21.37;11.57;;;;;;;;;;5048213;28;20182;-46
2021/03/01 04:32:58;;;;;;;21.47;11.87;;;;;;;;;;5043277;28;20765;-44
2021/03/01 04:35:24;;;;;;;20.40;11.50;;;;;;;;;;5036723;28;20494;-45
2021/03/01 04:37:49;;;;;;;18.07;11.23;;;;;;;;;;5037165;28;20639;-46
2021/03/01 04:40:15;;;;;;;18.97;11.00;;;;;;;;;;5054576;28;20555;-45
2021/03/01 04:42:45;;;;;;;20.27;11.00;;;;;;;;;;5050157;28;20224;-44
2021/03/01 04:45:11;;;;;;;19.83;11.73;;;;;;;;;;5044449;28;20189;-45
2021/03/01 04:47:40;;;;;;;18.93;10.30;;;;;;;;;;5034476;28;20193;-44
2021/03/01 04:50:06;;;;;;;19.17;10.67;;;;;;;;;;5043421;28;20186;-44
2021/03/01 04:52:32;;;;;;;18.10;10.93;;;;;;;;;;5043092;28;20198;-44
2021/03/01 04:55:01;;;;;;;19.53;10.43;;;;;;;;;;5053830;28;20197;-46
2021/03/01 04:57:27;;;;;;;19.73;11.33;;;;;;;;;;5033546;28;20189;-44
2021/03/01 04:59:53;;;;;;;20.10;11.53;;;;;;;;;;5036379;28;20556;-44
2021/03/01 05:02:20;;;;;;;20.23;10.97;;;;;;;;;;5039733;28;20214;-45
2021/03/01 05:04:45;;;;;;;20.03;11.13;;;;;;;;;;5043389;28;20194;-46
2021/03/01 05:07:11;;;;;;;20.10;10.70;;;;;;;;;;5038901;28;20582;-46
2021/03/01 05:09:38;;;;;;;18.37;10.20;;;;;;;;;;5042980;28;20297;-45
2021/03/01 05:12:04;;;;;;;24.07;11.53;;;;;;;;;;5039275;28;20661;-44
2021/03/01 05:14:32;;;;;;;19.80;10.57;;;;;;;;;;5044928;28;20220;-46
2021/03/01 05:17:01;;;;;;;18.50;10.97;;;;;;;;;;5042662;28;20637;-46
2021/03/01 05:19:28;;;;;;;17.80;10.47;;;;;;;;;;5049138;28;20213;-44
2021/03/01 05:21:53;;;;;;;17.73;10.50;;;;;;;;;;5039941;28;20277;-45
2021/03/01 05:24:19;;;;;;;18.50;11.10;;;;;;;;;;5044536;28;20277;-45
2021/03/01 05:26:44;;;;;;;15.83;10.30;;;;;;;;;;5041492;28;20210;-45
2021/03/01 05:29:09;;;;;;;17.57;9.40;;;;;;;;;;5051152;28;20232;-45
2021/03/01 05:31:35;;;;;;;16.27;9.47;;;;;;;;;;5041063;28;20198;-45
2021/03/01 05:34:01;;;;;;;13.73;8.97;;;;;;;;;;5038380;28;20289;-45
2021/03/01 05:36:26;;;;;;;17.07;10.03;;;;;;;;;;5047249;28;20212;-44
2021/03/01 05:38:52;;;;;;;16.00;9.57;;;;;;;;;;5042878;28;20764;-46
2021/03/01 05:41:19;;;;;;;15.90;9.67;;;;;;;;;;5041663;28;20190;-47
2021/03/01 05:43:46;;;;;;;17.87;11.07;;;;;;;;;;5038939;28;20197;-44
2021/03/01 05:46:12;;;;;;;13.77;8.57;;;;;;;;;;5043822;28;20213;-44
2021/03/01 05:48:40;;;;;;;14.13;7.93;;;;;;;;;;5049944;28;20214;-45
2021/03/01 05:51:06;;;;;;;13.53;8.13;;;;;;;;;;5047318;28;20194;-46
2021/03/01 05:53:36;;;;;;;13.73;8.43;;;;;;;;;;5042402;28;20202;-44
2021/03/01 05:56:02;;;;;;;10.83;6.87;;;;;;;;;;5039039;28;20190;-47
2021/03/01 05:58:28;;;;;;;12.13;7.13;;;;;;;;;;5037129;28;20370;-45
2021/03/01 06:00:59;;;;;;;11.13;7.00;;;;;;;;;;5048945;28;20193;-45
2021/03/01 06:03:27;;;;;;;13.43;8.00;;;;;;;;;;5044345;28;20186;-44
2021/03/01 07:28:17;;;;;;;8.23;4.83;;;;;;;;;;5054638;27;20652;-46
2021/03/01 07:30:45;;;;;;;3.57;2.37;;;;;;;;;;5062659;28;20197;-45
2021/03/01 07:36:59;;;;;;;12.87;7.27;;;;;;;;;;5009545;28;20273;-46
2021/03/01 07:39:25;;;;;;;14.13;7.77;;;;;;;;;;5058534;23;20283;-47
2021/03/01 07:41:51;;;;;;;21.10;3.90;;;;;;;;;;5022667;28;20285;-46
2021/03/01 07:44:30;;;;;;;7.57;4.67;;;;;;;;;;5025386;28;20296;-47
2021/03/01 07:46:58;;;;;;;9.70;6.07;;;;;;;;;;5026413;28;20211;-46
2021/03/01 07:49:42;;;;;;;12.77;7.70;;;;;;;;;;5022116;28;20221;-48
2021/03/01 07:52:27;;;;;;;12.90;7.53;;;;;;;;;;5019496;28;20737;-46
2021/03/01 07:54:57;;;;;;;19.23;8.07;;;;;;;;;;5016804;28;20216;-47
2021/03/01 07:57:27;;;;;;;13.03;6.80;;;;;;;;;;5017960;28;20548;-48
2021/03/01 07:59:52;;;;;;;11.73;6.33;;;;;;;;;;5021385;28;20214;-48
2021/03/01 08:02:31;;;;;;;12.73;7.20;;;;;;;;;;5023558;28;20199;-49
2021/03/01 08:04:58;;;;;;;11.77;7.80;;;;;;;;;;5019240;28;20194;-46
2021/03/01 08:07:37;;;;;;;10.30;5.33;;;;;;;;;;5013434;28;20239;-49
2021/03/01 08:10:04;;;;;;;7.50;3.60;;;;;;;;;;5017772;28;20226;-48
2021/03/01 08:12:29;;;;;;;10.83;6.00;;;;;;;;;;5019157;28;20207;-48
2021/03/01 08:14:57;;;;;;;14.93;8.10;;;;;;;;;;5020340;28;20183;-48
2021/03/01 08:17:31;;;;;;;11.70;7.43;;;;;;;;;;5020878;28;20681;-48
2021/03/01 08:20:12;;;;;;;8.20;4.93;;;;;;;;;;5017524;28;20213;-48
2021/03/01 08:23:01;;;;;;;10.83;6.57;;;;;;;;;;5020587;28;20190;-46
2021/03/01 08:25:42;;;;;;;10.97;6.80;;;;;;;;;;5017524;28;20205;-47
2021/03/01 08:28:08;;;;;;;10.07;5.47;;;;;;;;;;5021106;28;20309;-49
2021/03/01 08:30:34;;;;;;;5.90;2.40;;;;;;;;;;5015571;28;20210;-46
2021/03/01 08:33:08;;;;;;;8.27;5.20;;;;;;;;;;5022677;28;20198;-47
2021/03/01 08:35:41;;;;;;;6.87;4.63;;;;;;;;;;5022208;28;20221;-47
2021/03/01 08:38:08;;;;;;;12.17;7.97;;;;;;;;;;5017718;28;20222;-48
2021/03/01 08:40:34;;;;;;;15.17;6.13;;;;;;;;;;5006722;28;20220;-49
2021/03/01 08:43:02;;;;;;;9.73;6.37;;;;;;;;;;5008806;28;20204;-46
2021/03/01 08:45:27;;;;;;;14.03;7.63;;;;;;;;;;5010459;28;20206;-48
2021/03/01 08:47:55;;;;;;;7.27;3.07;;;;;;;;;;5009293;28;20211;-46
2021/03/01 08:50:27;;;;;;;5.10;3.43;;;;;;;;;;5003506;28;20199;-47
2021/03/01 08:52:52;;;;;;;9.97;5.90;;;;;;;;;;5006305;28;20188;-47
2021/03/01 08:55:19;;;;;;;13.20;7.47;;;;;;;;;;5006445;28;20560;-49
2021/03/01 08:57:58;;;;;;;11.87;6.30;;;;;;;;;;5008871;28;20275;-46
2021/03/01 09:00:25;;;;;;;12.93;7.40;;;;;;;;;;5001648;28;20218;-47
2021/03/01 09:03:08;;;;;;;11.90;7.03;;;;;;;;;;5007325;28;20654;-46
2021/03/01 09:05:33;;;;;;;10.23;7.17;;;;;;;;;;5006427;28;20187;-47
2021/03/01 09:07:58;;;;;;;12.73;7.90;;;;;;;;;;5006130;28;20222;-47
2021/03/01 09:10:43;;;;;;;12.73;7.47;;;;;;;;;;5008269;28;20218;-48
2021/03/01 09:13:10;;;;;;;13.77;8.37;;;;;;;;;;5003599;28;20187;-45
2021/03/01 09:15:36;;;;;;;18.90;9.03;;;;;;;;;;5004882;28;20206;-48
2021/03/01 09:18:04;;;;;;;12.50;8.50;;;;;;;;;;5022249;28;20282;-46
2021/03/01 09:20:49;;;;;;;12.40;8.00;;;;;;;;;;5008712;28;20214;-46
2021/03/01 09:23:41;;;;;;;9.33;5.37;;;;;;;;;;5000734;28;20210;-49
2021/03/01 09:26:08;;;;;;;6.23;3.80;;;;;;;;;;5009051;28;20590;-45
2021/03/01 09:28:35;;;;;;;4.23;3.13;;;;;;;;;;5006795;28;20192;-47
2021/03/01 09:31:09;;;;;;;8.83;5.97;;;;;;;;;;5007987;28;20322;-46
2021/03/01 09:33:36;;;;;;;16.50;7.17;;;;;;;;;;5007347;28;20199;-47
2021/03/01 09:36:03;;;;;;;11.83;7.40;;;;;;;;;;5007200;28;20199;-46
2021/03/01 09:38:28;;;;;;;12.13;7.03;;;;;;;;;;5010076;28;20236;-45
2021/03/01 09:41:09;;;;;;;13.50;7.97;;;;;;;;;;5006718;28;20249;-45
2021/03/01 09:43:35;;;;;;;11.13;6.53;;;;;;;;;;5005319;28;20184;-48
2021/03/01 09:46:03;;;;;;;11.80;7.27;;;;;;;;;;5008988;28;20207;-47
2021/03/01 09:48:35;;;;;;;11.23;6.00;;;;;;;;;;5006005;28;20196;-47
2021/03/01 09:51:03;;;;;;;7.73;5.07;;;;;;;;;;5008834;28;20564;-47
2021/03/01 09:53:28;;;;;;;11.30;6.00;;;;;;;;;;5009329;28;20191;-47
2021/03/01 09:55:57;;;;;;;11.10;5.67;;;;;;;;;;5006490;28;20256;-48
2021/03/01 09:58:27;;;;;;;11.07;8.03;;;;;;;;;;5003653;28;20199;-48
2021/03/01 10:01:13;;;;;;;12.00;7.63;;;;;;;;;;5006724;28;20257;-48
2021/03/01 10:03:40;;;;;;;15.83;7.27;;;;;;;;;;5005379;28;20270;-49
2021/03/01 10:06:07;;;;;;;13.63;7.73;;;;;;;;;;5008315;28;20188;-47
2021/03/01 10:08:32;;;;;;;9.37;5.33;;;;;;;;;;4999714;28;20187;-49
2021/03/01 10:10:58;;;;;;;11.57;8.20;;;;;;;;;;4998812;28;20574;-49
2021/03/01 10:13:27;;;;;;;10.40;7.40;;;;;;;;;;4993763;28;20299;-47
2021/03/01 10:15:53;;;;;;;10.07;6.87;;;;;;;;;;5005993;28;20561;-50
2021/03/01 10:18:20;;;;;;;13.27;8.60;;;;;;;;;;5004369;28;20195;-45
2021/03/01 10:21:06;;;;;;;10.30;7.30;;;;;;;;;;5005391;28;21510;-47
2021/03/01 10:23:40;;;;;;;6.80;4.30;;;;;;;;;;5003882;28;20301;-48
2021/03/01 10:26:16;;;;;;;12.53;6.90;;;;;;;;;;5004636;28;20198;-46
2021/03/01 10:28:59;;;;;;;12.60;8.27;;;;;;;;;;5003906;28;20191;-48
2021/03/01 10:31:35;;;;;;;11.70;8.33;;;;;;;;;;5006501;28;20542;-48
2021/03/01 10:34:11;;;;;;;12.50;8.43;;;;;;;;;;5009131;28;20194;-48
2021/03/01 10:36:39;;;;;;;14.10;8.40;;;;;;;;;;5003416;28;20187;-48
2021/03/01 10:39:08;;;;;;;10.70;6.57;;;;;;;;;;5005435;28;20648;-46
2021/03/01 10:41:41;;;;;;;9.67;4.87;;;;;;;;;;5004534;28;20280;-48
2021/03/01 10:44:08;;;;;;;15.97;8.07;;;;;;;;;;4998498;28;20199;-48
2021/03/01 10:46:37;;;;;;;12.10;8.00;;;;;;;;;;5009149;28;20207;-47
2021/03/01 10:49:12;;;;;;;12.83;7.97;;;;;;;;;;5004905;28;20202;-46
2021/03/01 10:51:37;;;;;;;13.27;8.03;;;;;;;;;;5005581;28;20187;-46
2021/03/01 10:54:04;;;;;;;11.77;8.03;;;;;;;;;;5005265;28;20820;-48
2021/03/01 10:56:29;;;;;;;8.00;4.57;;;;;;;;;;5005527;28;20257;-46
2021/03/01 10:58:54;;;;;;;5.47;3.80;;;;;;;;;;5006762;28;20682;-47
2021/03/01 11:01:20;;;;;;;9.97;4.73;;;;;;;;;;4998819;28;20198;-48
2021/03/01 11:03:46;;;;;;;5.13;3.87;;;;;;;;;;5001505;28;20189;-46
2021/03/01 11:06:11;;;;;;;13.40;8.63;;;;;;;;;;5004929;28;20549;-46
2021/03/01 11:08:36;;;;;;;7.00;4.03;;;;;;;;;;5006302;28;20269;-46
2021/03/01 11:11:02;;;;;;;11.80;7.43;;;;;;;;;;5001777;28;20596;-46
2021/03/01 11:13:27;;;;;;;6.50;3.60;;;;;;;;;;5005515;28;20203;-47
2021/03/01 11:15:52;;;;;;;6.97;4.13;;;;;;;;;;5006329;28;20685;-45
2021/03/01 11:18:17;;;;;;;11.27;7.80;;;;;;;;;;5003283;28;20187;-46
2021/03/01 11:20:43;;;;;;;9.60;5.97;;;;;;;;;;5008509;28;20206;-50
2021/03/01 11:23:08;;;;;;;5.67;3.43;;;;;;;;;;5003465;28;20656;-48
2021/03/01 11:25:34;;;;;;;9.10;6.30;;;;;;;;;;5004024;28;20234;-45
2021/03/01 11:28:00;;;;;;;12.40;7.93;;;;;;;;;;5001844;28;20277;-45
2021/03/01 11:30:26;;;;;;;12.30;8.20;;;;;;;;;;5004909;28;20214;-48
2021/03/01 11:32:54;;;;;;;9.83;6.17;;;;;;;;;;5006396;28;20668;-45
2021/03/01 11:35:20;;;;;;;11.50;6.60;;;;;;;;;;5005091;28;20622;-45
2021/03/01 11:37:45;;;;;;;6.33;4.57;;;;;;;;;;5005988;28;20191;-48
2021/03/01 11:40:11;;;;;;;9.07;4.77;;;;;;;;;;5000515;28;20665;-48
2021/03/01 11:42:36;;;;;;;11.50;7.33;;;;;;;;;;5006165;28;20193;-46
2021/03/01 11:45:02;;;;;;;11.70;9.00;;;;;;;;;;5006126;28;20190;-46
2021/03/01 11:47:28;;;;;;;8.40;5.53;;;;;;;;;;4999617;28;20580;-47
2021/03/01 11:49:53;;;;;;;11.90;8.30;;;;;;;;;;5005395;28;20214;-47
2021/03/01 11:52:19;;;;;;;11.53;8.80;;;;;;;;;;5004856;28;20196;-48
2021/03/01 11:54:44;;;;;;;12.70;9.53;;;;;;;;;;5007315;28;20237;-47
2021/03/01 11:57:09;;;;;;;7.30;4.90;;;;;;;;;;5005855;28;20210;-47
2021/03/01 11:59:35;;;;;;;10.07;7.23;;;;;;;;;;5001562;28;20268;-49
2021/03/01 12:02:00;;;;;;;11.23;7.37;;;;;;;;;;5003954;28;20195;-48
2021/03/01 12:04:25;;;;;;;8.00;6.17;;;;;;;;;;5007630;28;20187;-50
2021/03/01 12:06:50;;;;;;;11.27;7.70;;;;;;;;;;5006357;28;20507;-46
2021/03/01 12:09:16;;;;;;;10.30;7.33;;;;;;;;;;5004777;28;20222;-47
2021/03/01 12:11:41;;;;;;;10.90;7.55;;;;;;;;;;5005273;28;20648;-47
2021/03/01 12:14:06;;;;;;;10.88;9.02;;;;;;;;;;5003556;28;20308;-48
2021/03/01 12:16:31;;;;;;;10.70;8.52;;;;;;;;;;5010307;28;20194;-53
2021/03/01 12:18:56;;;;;;;12.27;9.98;;;;;;;;;;5009950;28;20195;-48
2021/03/01 12:21:22;;;;;;;9.13;6.40;;;;;;;;;;5009733;28;20686;-49
2021/03/01 12:23:47;;;;;;;13.65;9.82;;;;;;;;;;5008662;28;20183;-45
2021/03/01 12:26:12;;;;;;;8.93;7.72;;;;;;;;;;5008832;28;20212;-47
2021/03/01 12:28:37;;;;;;;9.75;7.55;;;;;;;;;;5008983;28;20193;-49
2021/03/01 12:31:03;;;;;;;10.15;8.52;;;;;;;;;;5006042;28;20680;-48
2021/03/01 12:33:28;;;;;;;10.50;8.82;;;;;;;;;;5006400;28;20275;-49
2021/03/01 12:35:53;;;;;;;12.20;10.07;;;;;;;;;;5006657;28;21794;-48
2021/03/01 12:38:18;;;;;;;10.80;9.52;;;;;;;;;;5008691;28;20189;-47
2021/03/01 12:40:44;;;;;;;11.02;9.93;;;;;;;;;;5006311;28;20203;-47
2021/03/01 12:43:09;;;;;;;11.13;9.80;;;;;;;;;;5007481;28;20840;-49
2021/03/01 12:45:35;;;;;;;11.32;10.23;;;;;;;;;;5007109;28;20195;-48
2021/03/01 12:48:01;;;;;;;11.68;10.25;;;;;;;;;;4997152;28;20225;-48
2021/03/01 12:50:26;;;;;;;12.35;9.25;;;;;;;;;;5008459;28;20288;-48
2021/03/01 12:52:51;;;;;;;11.73;9.70;;;;;;;;;;5007639;28;20191;-47
2021/03/01 12:55:17;;;;;;;12.95;10.25;;;;;;;;;;5008867;28;20230;-49
2021/03/01 12:57:42;;;;;;;11.38;9.90;;;;;;;;;;5007155;28;20187;-49
2021/03/01 13:00:10;;;;;;;12.00;10.23;;;;;;;;;;4996324;28;20215;-47
2021/03/01 13:02:36;;;;;;;11.32;9.68;;;;;;;;;;5011507;28;20183;-48
2021/03/01 13:05:01;;;;;;;12.63;10.25;;;;;;;;;;5007461;28;20574;-48
2021/03/01 13:07:26;;;;;;;13.30;10.90;;;;;;;;;;5001093;28;20296;-48
2021/03/01 13:09:52;;;;;;;10.98;9.85;;;;;;;;;;5007321;28;20220;-48
2021/03/01 13:12:17;;;;;;;12.10;10.32;;;;;;;;;;5024540;28;20191;-50
2021/03/01 13:14:42;;;;;;;11.70;10.50;;;;;;;;;;5003380;28;20191;-48
2021/03/01 13:17:08;;;;;;;11.82;10.57;;;;;;;;;;5006565;28;20194;-49
2021/03/01 13:19:34;;;;;;;11.15;10.00;;;;;;;;;;5004698;28;23915;-48
2021/03/01 13:21:59;;;;;;;12.25;10.00;;;;;;;;;;5006118;28;20230;-47
2021/03/01 13:24:24;;;;;;;11.27;8.65;;;;;;;;;;5005003;28;20191;-47
2021/03/01 13:26:50;;;;;;;11.90;10.70;;;;;;;;;;5010106;28;20208;-48
2021/03/01 13:29:15;;;;;;;12.65;10.98;;;;;;;;;;5005587;28;20329;-48
2021/03/01 13:31:40;;;;;;;11.90;10.48;;;;;;;;;;5001402;28;20810;-47
2021/03/01 13:34:05;;;;;;;11.70;9.98;;;;;;;;;;5011589;28;20187;-47
2021/03/01 13:36:31;;;;;;;13.32;10.50;;;;;;;;;;5009022;28;20186;-47
2021/03/01 13:38:57;;;;;;;12.85;11.07;;;;;;;;;;5003377;28;20188;-48
2021/03/01 13:41:22;;;;;;;12.52;11.23;;;;;;;;;;5004419;28;20278;-49
2021/03/01 13:43:47;;;;;;;11.80;10.60;;;;;;;;;;5005833;28;20200;-49
2021/03/01 13:46:12;;;;;;;11.98;10.57;;;;;;;;;;5006986;28;20187;-48
2021/03/01 13:48:38;;;;;;;11.45;10.25;;;;;;;;;;5003811;28;20282;-47
2021/03/01 13:51:03;;;;;;;12.57;11.38;;;;;;;;;;5004681;28;20215;-47
2021/03/01 13:53:29;;;;;;;12.15;10.88;;;;;;;;;;5001572;28;20184;-50
2021/03/01 13:55:54;;;;;;;12.00;10.80;;;;;;;;;;5007090;28;20188;-51
2021/03/01 13:58:20;;;;;;;12.30;10.98;;;;;;;;;;5006423;28;20183;-46
2021/03/01 14:00:45;;;;;;;12.85;11.35;;;;;;;;;;5006731;28;20209;-46
2021/03/01 14:03:10;;;;;;;11.77;10.55;;;;;;;;;;5005967;28;20651;-48
2021/03/01 14:05:36;;;;;;;12.30;10.68;;;;;;;;;;5005196;28;20184;-48
2021/03/01 14:08:01;;;;;;;12.20;10.63;;;;;;;;;;5006130;28;20211;-48
2021/03/01 14:10:26;;;;;;;12.52;11.23;;;;;;;;;;5005096;28;20203;-47
2021/03/01 14:12:51;;;;;;;12.13;10.93;;;;;;;;;;5005503;28;20217;-50
2021/03/01 14:15:17;;;;;;;12.02;9.88;;;;;;;;;;5004955;28;20194;-49
2021/03/01 14:17:42;;;;;;;12.52;11.23;;;;;;;;;;5008591;28;20183;-48
2021/03/01 14:20:08;;;;;;;12.02;10.48;;;;;;;;;;5008480;28;20230;-47
2021/03/01 14:22:34;;;;;;;11.48;10.27;;;;;;;;;;5007386;28;20187;-49
2021/03/01 14:25:00;;;;;;;12.00;10.10;;;;;;;;;;5005744;28;20195;-48
2021/03/01 14:27:25;;;;;;;12.13;9.98;;;;;;;;;;5006550;28;20586;-48
2021/03/01 14:29:51;;;;;;;11.48;8.98;;;;;;;;;;5007073;28;20239;-51
2021/03/01 14:32:17;;;;;;;12.90;10.50;;;;;;;;;;5005712;28;20237;-48
2021/03/01 14:34:43;;;;;;;11.38;9.82;;;;;;;;;;5005165;28;20670;-47
2021/03/01 14:37:08;;;;;;;13.50;10.70;;;;;;;;;;5004726;28;20199;-47
2021/03/01 14:39:33;;;;;;;13.43;10.67;;;;;;;;;;5007955;28;20556;-47
2021/03/01 14:41:59;;;;;;;14.37;11.43;;;;;;;;;;5009028;28;20195;-47
2021/03/01 14:44:24;;;;;;;14.67;10.23;;;;;;;;;;5005746;28;20191;-48
2021/03/01 14:46:49;;;;;;;13.63;10.23;;;;;;;;;;5007876;28;20191;-47
2021/03/01 14:49:15;;;;;;;13.13;10.90;;;;;;;;;;5004878;28;20278;-48
2021/03/01 14:51:40;;;;;;;12.70;8.70;;;;;;;;;;5008556;28;20199;-48
2021/03/01 14:54:05;;;;;;;13.13;9.67;;;;;;;;;;5005065;28;20253;-48
2021/03/01 14:56:31;;;;;;;12.90;10.57;;;;;;;;;;5007140;28;20265;-46
2021/03/01 14:58:58;;;;;;;10.40;7.77;;;;;;;;;;5007255;28;20297;-46
2021/03/01 15:01:24;;;;;;;9.90;7.97;;;;;;;;;;5008340;28;20563;-46
2021/03/01 15:03:49;;;;;;;11.57;8.57;;;;;;;;;;5005924;28;20199;-47
2021/03/01 15:06:14;;;;;;;13.03;10.20;;;;;;;;;;5004894;28;20183;-45
2021/03/01 15:08:40;;;;;;;14.83;8.07;;;;;;;;;;5006365;28;20202;-46
2021/03/01 15:11:06;;;;;;;14.47;9.93;;;;;;;;;;5008067;28;20309;-49
2021/03/01 15:13:33;;;;;;;10.93;9.10;;;;;;;;;;5004579;28;20199;-48
2021/03/01 15:15:59;;;;;;;11.70;8.67;;;;;;;;;;5002932;28;20188;-48
2021/03/01 15:18:25;;;;;;;13.07;7.67;;;;;;;;;;5005765;28;20191;-47
2021/03/01 15:20:51;;;;;;;11.83;8.00;;;;;;;;;;5007347;28;20585;-47
2021/03/01 15:23:17;;;;;;;14.00;8.50;;;;;;;;;;5005680;28;20202;-46
2021/03/01 15:25:43;;;;;;;12.40;8.30;;;;;;;;;;5005009;28;20665;-48
2021/03/01 15:28:08;;;;;;;10.13;6.90;;;;;;;;;;5005714;28;20686;-48
2021/03/01 15:30:34;;;;;;;8.50;6.53;;;;;;;;;;5006665;28;20215;-50
2021/03/01 15:32:59;;;;;;;9.33;5.53;;;;;;;;;;5005311;28;20621;-48
2021/03/01 15:35:24;;;;;;;10.73;7.33;;;;;;;;;;5005015;28;20194;-47
2021/03/01 15:37:49;;;;;;;11.07;8.00;;;;;;;;;;5004592;28;20211;-47
2021/03/01 15:40:15;;;;;;;9.33;6.70;;;;;;;;;;5002549;28;20211;-46
2021/03/01 15:42:40;;;;;;;7.40;5.97;;;;;;;;;;5003955;28;20210;-48
2021/03/01 15:45:06;;;;;;;7.00;5.40;;;;;;;;;;5003103;28;20572;-46
2021/03/01 15:47:31;;;;;;;11.37;7.40;;;;;;;;;;5006640;28;20187;-49
2021/03/01 15:49:57;;;;;;;8.23;4.20;;;;;;;;;;5009739;28;20214;-48
2021/03/01 15:52:22;;;;;;;10.70;6.73;;;;;;;;;;5008218;28;20273;-46
2021/03/01 15:54:47;;;;;;;9.87;6.70;;;;;;;;;;5007902;28;20191;-46